createdAt,value
2018-08-30T04:03:03.511Z,26.70
2018-08-30T04:05:31.606Z,24.73
2018-08-30T04:07:59.950Z,25.73
2018-08-30T04:10:29.062Z,25.63
2018-08-30T04:12:57.625Z,24.60
2018-08-30T04:15:26.276Z,21.97
2018-08-30T04:17:54.475Z,24.33
2018-08-30T04:20:22.785Z,23.07
2018-08-30T04:22:50.666Z,22.00
2018-08-30T04:25:18.599Z,19.90
2018-08-30T04:27:46.410Z,22.00
2018-08-30T04:30:15.009Z,25.00
2018-08-30T04:32:42.979Z,19.27
2018-08-30T04:35:10.775Z,22.90
2018-08-30T04:37:38.494Z,18.13
2018-08-30T04:40:07.184Z,22.30
2018-08-30T04:42:36.431Z,20.70
2018-08-30T04:45:04.536Z,19.10
2018-08-30T04:47:32.710Z,29.70
2018-08-30T04:50:01.237Z,17.17
2018-08-30T04:52:29.866Z,25.50
2018-08-30T04:54:57.806Z,21.70
2018-08-30T04:57:26.824Z,23.00
2018-08-30T04:59:55.210Z,21.47
2018-08-30T05:02:23.789Z,18.67
2018-08-30T05:04:52.382Z,17.10
2018-08-30T05:07:21.520Z,20.10
2018-08-30T05:09:49.893Z,17.60
2018-08-30T05:12:17.856Z,20.83
2018-08-30T05:14:45.886Z,20.93
2018-08-30T05:17:13.861Z,17.87
2018-08-30T05:19:41.800Z,20.70
2018-08-30T05:22:09.713Z,24.20
2018-08-30T05:24:37.818Z,22.53
2018-08-30T05:27:05.752Z,20.30
2018-08-30T05:29:33.606Z,29.20
2018-08-30T05:32:02.042Z,28.03
2018-08-30T05:34:31.402Z,18.47
2018-08-30T05:36:59.181Z,18.40
2018-08-30T05:39:27.070Z,17.33
2018-08-30T05:41:54.993Z,15.03
2018-08-30T05:44:23.444Z,23.30
2018-08-30T05:46:51.401Z,16.67
2018-08-30T05:49:19.353Z,17.33
2018-08-30T05:51:47.232Z,17.87
2018-08-30T05:54:15.560Z,23.33
2018-08-30T05:56:43.562Z,26.07
2018-08-30T05:59:11.583Z,20.50
2018-08-30T06:01:39.954Z,27.30
2018-08-30T06:04:08.018Z,19.50
2018-08-30T06:06:35.837Z,23.43
2018-08-30T06:09:05.128Z,40.17
2018-08-30T06:11:32.996Z,21.53
2018-08-30T06:14:01.013Z,21.40
2018-08-30T06:16:29.275Z,27.13
2018-08-30T06:18:57.271Z,28.23
2018-08-30T06:21:25.039Z,18.43
2018-08-30T06:23:53.849Z,26.73
2018-08-30T06:26:22.900Z,27.53
2018-08-30T06:28:51.609Z,20.17
2018-08-30T06:31:21.110Z,25.60
2018-08-30T06:33:48.954Z,25.33
2018-08-30T06:36:16.762Z,23.10
2018-08-30T06:38:45.082Z,24.00
2018-08-30T06:41:12.966Z,18.37
2018-08-30T06:43:40.865Z,25.77
2018-08-30T06:46:08.900Z,21.50
2018-08-30T06:48:37.200Z,19.00
2018-08-30T06:51:05.563Z,15.80
2018-08-30T06:53:33.413Z,21.73
2018-08-30T06:56:01.125Z,15.77
2018-08-30T06:58:29.227Z,14.37
2018-08-30T07:00:56.975Z,22.73
2018-08-30T07:03:25.375Z,21.67
2018-08-30T07:05:54.811Z,17.37
2018-08-30T07:08:23.484Z,19.27
2018-08-30T07:10:51.537Z,18.10
2018-08-30T07:13:20.657Z,16.40
2018-08-30T07:15:48.553Z,20.60
2018-08-30T07:18:16.505Z,25.23
2018-08-30T07:20:45.213Z,22.00
2018-08-30T07:23:13.718Z,21.63
2018-08-30T07:25:42.209Z,20.10
2018-08-30T07:28:10.303Z,19.87
2018-08-30T07:30:38.293Z,22.53
2018-08-30T07:33:06.267Z,15.53
2018-08-30T07:35:34.260Z,14.70
2018-08-30T07:38:02.225Z,15.27
2018-08-30T07:40:30.802Z,17.33
2018-08-30T07:42:59.060Z,18.03
2018-08-30T07:45:27.866Z,19.43
2018-08-30T07:47:56.619Z,14.43
2018-08-30T07:50:25.203Z,20.10
2018-08-30T07:52:53.117Z,19.23
2018-08-30T07:55:20.982Z,22.93
2018-08-30T07:57:49.294Z,19.20
2018-08-30T08:00:17.950Z,20.13
2018-08-30T08:02:46.437Z,13.60
2018-08-30T08:05:14.214Z,19.40
2018-08-30T08:07:42.268Z,17.00
2018-08-30T08:10:10.815Z,16.40
2018-08-30T08:12:39.107Z,18.23
2018-08-30T08:15:07.047Z,17.40
2018-08-30T08:17:35.639Z,13.37
2018-08-30T08:20:04.222Z,18.70
2018-08-30T08:22:32.515Z,20.60
2018-08-30T08:25:00.482Z,16.90
2018-08-30T08:27:28.811Z,16.17
2018-08-30T08:29:56.572Z,13.70
2018-08-30T08:32:25.058Z,22.53
2018-08-30T08:34:53.013Z,12.27
2018-08-30T08:37:20.867Z,14.30
2018-08-30T08:39:49.452Z,13.47
2018-08-30T08:42:17.861Z,20.37
2018-08-30T08:44:45.808Z,16.77
2018-08-30T08:47:14.008Z,17.27
2018-08-30T08:49:42.014Z,18.30
2018-08-30T08:52:10.042Z,16.20
2018-08-30T08:54:38.010Z,15.53
2018-08-30T08:57:05.693Z,11.07
2018-08-30T08:59:33.667Z,19.37
2018-08-30T09:02:01.619Z,19.07
2018-08-30T09:04:29.619Z,14.77
2018-08-30T09:06:57.649Z,17.80
2018-08-30T09:09:26.552Z,16.50
2018-08-30T09:11:55.103Z,17.50
2018-08-30T09:14:23.103Z,19.23
2018-08-30T09:16:50.902Z,15.67
2018-08-30T09:19:19.286Z,13.00
2018-08-30T09:21:48.518Z,20.27
2018-08-30T09:24:17.390Z,27.37
2018-08-30T09:26:45.409Z,17.73
2018-08-30T09:29:13.375Z,19.00
2018-08-30T09:31:41.215Z,16.07
2018-08-30T09:34:09.171Z,18.03
2018-08-30T09:36:36.952Z,8.70
2018-08-30T09:39:06.388Z,7.50
2018-08-30T09:41:34.444Z,7.37
2018-08-30T09:44:03.104Z,8.37
2018-08-30T09:46:31.635Z,6.67
2018-08-30T09:48:59.584Z,7.10
2018-08-30T09:51:27.548Z,10.03
2018-08-30T09:53:55.530Z,8.00
2018-08-30T09:56:23.366Z,9.00
2018-08-30T09:58:52.133Z,8.93
2018-08-30T10:01:25.205Z,8.80
2018-08-30T10:03:54.445Z,8.10
2018-08-30T10:06:22.373Z,9.87
2018-08-30T10:08:50.357Z,10.93
2018-08-30T10:11:18.417Z,7.30
2018-08-30T10:13:46.682Z,9.83
2018-08-30T10:16:15.278Z,6.50
2018-08-30T10:18:43.180Z,6.73
2018-08-30T10:21:11.845Z,7.53
2018-08-30T10:23:40.470Z,5.37
2018-08-30T10:26:08.394Z,5.90
2018-08-30T10:28:38.226Z,7.67
2018-08-30T10:31:07.053Z,3.63
2018-08-30T10:33:36.358Z,3.50
2018-08-30T10:36:04.311Z,3.93
2018-08-30T10:38:33.528Z,4.13
2018-08-30T10:41:01.569Z,3.47
2018-08-30T10:43:29.356Z,2.47
2018-08-30T10:45:58.258Z,2.60
2018-08-30T10:48:26.315Z,2.57
2018-08-30T10:50:54.300Z,2.33
2018-08-30T10:53:23.323Z,3.00
2018-08-30T10:55:51.188Z,3.57
2018-08-30T10:58:19.130Z,2.30
2018-08-30T11:00:47.041Z,2.77
2018-08-30T11:03:15.335Z,3.00
2018-08-30T11:05:43.706Z,3.60
2018-08-30T11:08:11.662Z,3.73
2018-08-30T11:10:39.942Z,4.00
2018-08-30T11:13:08.453Z,4.37
2018-08-30T11:15:36.189Z,6.73
2018-08-30T11:18:04.222Z,6.53
2018-08-30T11:20:32.756Z,8.60
2018-08-30T11:23:00.666Z,11.63
2018-08-30T11:25:28.598Z,8.67
2018-08-30T11:27:57.542Z,7.50
2018-08-30T11:30:26.133Z,6.13
2018-08-30T11:32:54.162Z,7.00
2018-08-30T11:35:23.160Z,11.47
2018-08-30T11:37:52.073Z,9.23
2018-08-30T11:40:19.818Z,9.60
2018-08-30T11:42:47.502Z,13.20
2018-08-30T11:45:15.269Z,12.57
2018-08-30T11:47:43.215Z,12.10
2018-08-30T11:50:11.867Z,11.97
2018-08-30T11:52:39.844Z,12.20
2018-08-30T11:55:07.744Z,11.03
2018-08-30T11:57:35.721Z,14.13
2018-08-30T12:00:04.365Z,13.03
2018-08-30T12:02:32.536Z,11.93
2018-08-30T12:05:00.483Z,12.90
2018-08-30T12:07:29.140Z,14.40
2018-08-30T12:09:58.714Z,12.37
2018-08-30T12:12:26.570Z,11.53
2018-08-30T12:14:55.262Z,9.90
2018-08-30T12:17:23.126Z,15.77
2018-08-30T12:19:52.201Z,12.87
2018-08-30T12:22:20.121Z,11.27
2018-08-30T12:24:48.425Z,11.57
2018-08-30T12:27:16.410Z,12.40
2018-08-30T12:29:44.383Z,14.20
2018-08-30T12:32:12.321Z,11.50
2018-08-30T12:34:40.265Z,9.60
2018-08-30T12:37:08.908Z,12.43
2018-08-30T12:39:36.747Z,13.47
2018-08-30T12:42:06.758Z,14.70
2018-08-30T12:44:34.632Z,10.53
2018-08-30T12:47:02.666Z,11.20
2018-08-30T12:49:30.579Z,11.37
2018-08-30T12:51:58.580Z,9.50
2018-08-30T12:54:27.562Z,10.13
2018-08-30T12:56:55.752Z,12.07
2018-08-30T12:59:30.576Z,9.37
2018-08-30T13:01:58.780Z,9.00
2018-08-30T13:04:26.911Z,7.50
2018-08-30T13:06:56.331Z,7.00
2018-08-30T13:09:25.163Z,8.03
2018-08-30T13:11:53.050Z,7.00
2018-08-30T13:14:21.297Z,6.07
2018-08-30T13:16:49.120Z,6.03
2018-08-30T13:19:19.131Z,6.97
2018-08-30T13:21:47.154Z,6.03
2018-08-30T13:24:15.206Z,6.60
2018-08-30T13:26:43.286Z,7.43
2018-08-30T13:29:11.578Z,6.00
2018-08-30T13:31:40.028Z,7.67
2018-08-30T13:34:08.540Z,9.30
2018-08-30T13:36:36.352Z,8.00
2018-08-30T13:39:05.347Z,8.77
2018-08-30T13:41:33.177Z,10.60
2018-08-30T13:44:00.749Z,8.27
2018-08-30T13:46:28.606Z,7.93
2018-08-30T13:48:56.867Z,10.80
2018-08-30T13:51:25.350Z,8.10
2018-08-30T13:53:53.285Z,10.00
2018-08-30T13:56:21.402Z,9.43
2018-08-30T13:58:49.273Z,8.43
2018-08-30T14:01:17.759Z,11.80
2018-08-30T14:03:45.504Z,11.33
2018-08-30T14:06:14.601Z,12.97
2018-08-30T14:08:42.865Z,10.40
2018-08-30T14:11:11.268Z,10.00
2018-08-30T14:13:40.852Z,11.00
2018-08-30T14:16:09.362Z,10.70
2018-08-30T14:18:37.217Z,11.83
2018-08-30T14:21:05.186Z,10.90
2018-08-30T14:23:33.311Z,12.80
2018-08-30T14:26:01.131Z,13.30
2018-08-30T14:28:29.640Z,11.10
2018-08-30T14:30:58.198Z,14.23
2018-08-30T14:33:25.977Z,11.37
2018-08-30T14:35:54.985Z,17.50
2018-08-30T14:38:23.676Z,12.60
2018-08-30T14:40:52.934Z,13.37
2018-08-30T14:43:22.252Z,13.93
2018-08-30T14:45:51.442Z,10.10
2018-08-30T14:48:19.437Z,12.80
2018-08-30T14:50:48.354Z,15.20
2018-08-30T14:53:20.492Z,16.43
2018-08-30T14:55:48.225Z,10.30
2018-08-30T14:58:16.498Z,9.97
2018-08-30T15:00:44.983Z,13.17
2018-08-30T15:03:12.779Z,11.17
2018-08-30T15:05:41.460Z,13.33
2018-08-30T15:08:09.301Z,7.70
2018-08-30T15:10:37.681Z,18.73
2018-08-30T15:13:05.546Z,10.93
2018-08-30T15:15:34.354Z,15.37
2018-08-30T15:18:02.101Z,7.30
2018-08-30T15:20:30.092Z,13.67
2018-08-30T15:22:58.756Z,7.97
2018-08-30T15:25:26.752Z,10.27
2018-08-30T15:27:54.668Z,7.00
2018-08-30T15:30:22.498Z,9.50
2018-08-30T15:32:50.951Z,9.17
2018-08-30T15:35:19.035Z,10.07
2018-08-30T15:37:47.562Z,7.60
2018-08-30T15:40:16.121Z,8.17
2018-08-30T15:42:45.244Z,9.60
2018-08-30T15:45:13.320Z,7.90
2018-08-30T15:47:41.235Z,5.77
2018-08-30T15:50:09.393Z,10.40
2018-08-30T15:52:38.719Z,5.87
2018-08-30T15:55:06.648Z,9.43
2018-08-30T15:57:34.434Z,5.67
2018-08-30T16:00:02.472Z,6.63
2018-08-30T16:02:31.322Z,4.43
2018-08-30T16:04:59.873Z,5.93
2018-08-30T16:07:27.751Z,8.23
2018-08-30T16:09:56.255Z,6.37
2018-08-30T16:12:24.737Z,5.17
2018-08-30T16:14:52.586Z,7.80
2018-08-30T16:17:20.569Z,7.53
2018-08-30T16:19:48.609Z,4.87
2018-08-30T16:22:17.115Z,6.10
2018-08-30T16:24:46.720Z,7.90
2018-08-30T16:27:15.251Z,12.90
2018-08-30T16:29:43.670Z,9.50
2018-08-30T16:32:11.545Z,7.37
2018-08-30T16:34:39.753Z,6.03
2018-08-30T16:37:07.494Z,7.60
2018-08-30T16:39:36.826Z,7.43
2018-08-30T16:42:04.726Z,6.60
2018-08-30T16:44:32.590Z,7.03
2018-08-30T16:47:00.615Z,7.63
2018-08-30T16:49:29.605Z,7.63
2018-08-30T16:51:58.050Z,7.23
2018-08-30T16:54:26.712Z,7.50
2018-08-30T16:56:54.873Z,11.87
2018-08-30T16:59:23.353Z,6.63
2018-08-30T17:01:51.486Z,10.60
2018-08-30T17:04:19.536Z,7.30
2018-08-30T17:06:47.583Z,6.53
2018-08-30T17:09:15.465Z,5.87
2018-08-30T17:11:44.890Z,10.97
2018-08-30T17:14:13.937Z,9.70
2018-08-30T17:16:41.699Z,11.80
2018-08-30T17:19:15.045Z,7.43
2018-08-30T17:21:43.032Z,8.47
2018-08-30T17:24:10.980Z,9.47
2018-08-30T17:26:40.408Z,10.77
2018-08-30T17:29:08.701Z,13.73
2018-08-30T17:31:36.814Z,10.70
2018-08-30T17:34:04.615Z,15.00
2018-08-30T17:36:32.575Z,9.40
2018-08-30T17:39:00.349Z,8.93
2018-08-30T17:41:29.037Z,8.20
2018-08-30T17:43:56.958Z,13.33
2018-08-30T17:46:24.736Z,10.00
2018-08-30T17:48:53.933Z,9.00
2018-08-30T17:51:21.929Z,7.30
2018-08-30T17:53:51.664Z,6.93
2018-08-30T17:56:19.713Z,13.80
2018-08-30T17:58:49.906Z,5.87
2018-08-30T18:01:18.159Z,7.43
2018-08-30T18:03:45.715Z,8.10
2018-08-30T18:06:14.127Z,10.63
2018-08-30T18:08:42.659Z,9.30
2018-08-30T18:11:10.657Z,5.53
2018-08-30T18:13:38.557Z,4.00
2018-08-30T18:16:06.409Z,7.27
2018-08-30T18:18:34.326Z,5.40
2018-08-30T18:21:02.349Z,11.77
2018-08-30T18:23:30.940Z,9.97
2018-08-30T18:25:58.702Z,7.20
2018-08-30T18:28:26.485Z,9.67
2018-08-30T18:30:54.518Z,6.10
2018-08-30T18:33:22.346Z,6.07
2018-08-30T18:35:50.696Z,8.27
2018-08-30T18:38:18.748Z,9.33
2018-08-30T18:40:47.954Z,5.47
2018-08-30T18:43:16.197Z,7.07
2018-08-30T18:45:48.029Z,5.80
2018-08-30T18:48:17.059Z,8.40
2018-08-30T18:50:44.929Z,8.80
2018-08-30T18:53:19.419Z,8.00
2018-08-30T18:55:51.056Z,5.77
2018-08-30T18:58:20.029Z,8.67
2018-08-30T19:00:47.984Z,4.90
2018-08-30T19:03:16.333Z,11.13
2018-08-30T19:05:44.256Z,15.87
2018-08-30T19:08:12.187Z,5.80
2018-08-30T19:10:41.103Z,6.20
2018-08-30T19:13:11.992Z,6.70
2018-08-30T19:15:45.229Z,7.50
2018-08-30T19:18:18.168Z,7.17
2018-08-30T19:20:48.787Z,8.37
2018-08-30T19:23:19.132Z,12.03
2018-08-30T19:25:49.262Z,8.60
2018-08-30T19:28:19.393Z,5.40
2018-08-30T19:30:47.291Z,7.80
2018-08-30T19:33:16.164Z,4.60
2018-08-30T19:35:49.206Z,14.53
2018-08-30T19:38:17.086Z,3.53
2018-08-30T19:40:50.129Z,2.80
2018-08-30T19:43:18.884Z,2.03
2018-08-30T19:45:46.717Z,9.60
2018-08-30T19:48:14.618Z,5.23
2018-08-30T19:50:42.502Z,3.20
2018-08-30T19:53:10.327Z,5.17
2018-08-30T19:55:38.130Z,7.00
2018-08-30T19:58:06.663Z,4.20
2018-08-30T20:00:34.670Z,10.33
2018-08-30T20:03:03.266Z,8.13
2018-08-30T20:05:31.049Z,11.33
2018-08-30T20:07:59.336Z,5.50
2018-08-30T20:10:27.467Z,5.17
2018-08-30T20:12:55.530Z,7.83
2018-08-30T20:15:23.402Z,3.20
2018-08-30T20:17:51.608Z,7.40
2018-08-30T20:20:20.426Z,10.60
2018-08-30T20:22:48.775Z,4.47
2018-08-30T20:25:16.563Z,5.37
2018-08-30T20:27:45.461Z,3.60
2018-08-30T20:30:13.768Z,5.50
2018-08-30T20:32:41.711Z,6.53
2018-08-30T20:35:09.547Z,3.20
2018-08-30T20:37:37.355Z,4.03
2018-08-30T20:40:05.470Z,4.80
2018-08-30T20:42:34.940Z,6.73
2018-08-30T20:45:02.672Z,7.97
2018-08-30T20:47:32.046Z,5.97
2018-08-30T20:50:01.502Z,9.17
2018-08-30T20:52:29.809Z,3.17
2018-08-30T20:54:57.779Z,2.47
2018-08-30T20:57:26.435Z,5.13
2018-08-30T20:59:54.298Z,5.57
2018-08-30T21:02:23.012Z,5.10
2018-08-30T21:04:51.230Z,5.90
2018-08-30T21:07:19.174Z,8.63
2018-08-30T21:09:47.170Z,8.57
2018-08-30T21:12:15.129Z,4.77
2018-08-30T21:14:43.136Z,7.00
2018-08-30T21:17:11.007Z,8.03
2018-08-30T21:19:39.958Z,10.67
2018-08-30T21:22:08.430Z,3.47
2018-08-30T21:24:36.130Z,6.20
2018-08-30T21:27:04.806Z,6.03
2018-08-30T21:29:33.602Z,11.73
2018-08-30T21:32:01.320Z,3.73
2018-08-30T21:34:29.967Z,1.97
2018-08-30T21:36:58.164Z,8.83
2018-08-30T21:39:25.798Z,5.17
2018-08-30T21:41:53.495Z,6.53
2018-08-30T21:44:21.126Z,9.20
2018-08-30T21:46:48.989Z,6.03
2018-08-30T21:49:16.659Z,8.37
2018-08-30T21:51:44.614Z,8.43
2018-08-30T21:54:13.161Z,10.70
2018-08-30T21:56:41.680Z,4.30
2018-08-30T21:59:09.622Z,10.10
2018-08-30T22:01:37.657Z,3.17
2018-08-30T22:04:05.702Z,6.20
2018-08-30T22:06:33.622Z,7.27
2018-08-30T22:09:01.487Z,8.23
2018-08-30T22:11:29.272Z,4.57
2018-08-30T22:13:57.297Z,25.53
2018-08-30T22:16:25.267Z,4.10
2018-08-30T22:18:53.057Z,9.50
2018-08-30T22:21:20.873Z,8.73
2018-08-30T22:23:49.757Z,3.40
2018-08-30T22:26:18.400Z,6.27
2018-08-30T22:28:46.235Z,10.10
